sensor_id;sensor_type;location;lat;lon;timestamp;pressure;altitude;pressure_sealevel;temperature;humidity
41306;BME280;27051;50.376;19.152;2023-06-22T00:01:31;98331.20;;;22.55;62.29
41306;BME280;27051;50.376;19.152;2023-06-22T00:03:58;98338.23;;;22.56;62.36
41306;BME280;27051;50.376;19.152;2023-06-22T00:06:25;98343.30;;;22.57;62.48
41306;BME280;27051;50.376;19.152;2023-06-22T00:08:52;98349.84;;;22.58;62.39
41306;BME280;27051;50.376;19.152;2023-06-22T00:11:18;98352.14;;;22.57;62.33
41306;BME280;27051;50.376;19.152;2023-06-22T00:13:45;98345.88;;;22.46;62.50
41306;BME280;27051;50.376;19.152;2023-06-22T00:16:12;98342.14;;;22.39;62.65
41306;BME280;27051;50.376;19.152;2023-06-22T00:18:39;98340.39;;;22.41;62.96
41306;BME280;27051;50.376;19.152;2023-06-22T00:21:06;98340.48;;;22.45;63.07
41306;BME280;27051;50.376;19.152;2023-06-22T00:23:33;98341.99;;;22.49;63.17
41306;BME280;27051;50.376;19.152;2023-06-22T00:25:59;98338.07;;;22.51;63.27
41306;BME280;27051;50.376;19.152;2023-06-22T00:28:28;98340.20;;;22.55;63.38
41306;BME280;27051;50.376;19.152;2023-06-22T00:30:55;98339.25;;;22.55;63.15
41306;BME280;27051;50.376;19.152;2023-06-22T00:33:22;98334.80;;;22.50;63.24
41306;BME280;27051;50.376;19.152;2023-06-22T00:35:49;98334.88;;;22.44;63.22
41306;BME280;27051;50.376;19.152;2023-06-22T00:38:15;98345.02;;;22.40;63.31
41306;BME280;27051;50.376;19.152;2023-06-22T00:40:42;98349.77;;;22.41;63.60
41306;BME280;27051;50.376;19.152;2023-06-22T00:43:09;98348.19;;;22.43;63.57
41306;BME280;27051;50.376;19.152;2023-06-22T00:45:36;98346.52;;;22.39;63.71
41306;BME280;27051;50.376;19.152;2023-06-22T00:48:03;98346.79;;;22.42;63.79
41306;BME280;27051;50.376;19.152;2023-06-22T00:50:32;98342.16;;;22.44;63.71
41306;BME280;27051;50.376;19.152;2023-06-22T00:53:05;98339.85;;;22.45;63.80
41306;BME280;27051;50.376;19.152;2023-06-22T00:55:32;98337.92;;;22.44;63.94
41306;BME280;27051;50.376;19.152;2023-06-22T00:57:59;98341.45;;;22.44;64.03
41306;BME280;27051;50.376;19.152;2023-06-22T01:00:26;98341.20;;;22.45;64.09
41306;BME280;27051;50.376;19.152;2023-06-22T01:02:53;98335.91;;;22.43;64.09
41306;BME280;27051;50.376;19.152;2023-06-22T01:05:21;98335.66;;;22.39;64.10
41306;BME280;27051;50.376;19.152;2023-06-22T01:10:32;98337.77;;;22.27;64.34
41306;BME280;27051;50.376;19.152;2023-06-22T01:13:15;98339.52;;;22.24;64.44
41306;BME280;27051;50.376;19.152;2023-06-22T01:15:50;98339.56;;;22.19;64.43
41306;BME280;27051;50.376;19.152;2023-06-22T01:18:18;98343.71;;;22.18;64.66
41306;BME280;27051;50.376;19.152;2023-06-22T01:20:47;98349.70;;;22.14;64.53
41306;BME280;27051;50.376;19.152;2023-06-22T01:23:29;98347.88;;;22.10;64.69
41306;BME280;27051;50.376;19.152;2023-06-22T01:26:18;98350.86;;;22.09;64.77
41306;BME280;27051;50.376;19.152;2023-06-22T01:28:53;98354.16;;;22.02;64.66
41306;BME280;27051;50.376;19.152;2023-06-22T01:31:24;98355.67;;;22.00;64.99
41306;BME280;27051;50.376;19.152;2023-06-22T01:33:54;98353.96;;;21.98;65.05
41306;BME280;27051;50.376;19.152;2023-06-22T01:36:23;98348.19;;;21.98;65.03
41306;BME280;27051;50.376;19.152;2023-06-22T01:38:52;98353.75;;;21.96;65.07
41306;BME280;27051;50.376;19.152;2023-06-22T01:41:20;98350.16;;;21.96;65.13
41306;BME280;27051;50.376;19.152;2023-06-22T01:43:48;98346.60;;;21.93;65.25
41306;BME280;27051;50.376;19.152;2023-06-22T01:46:16;98346.34;;;21.94;65.29
41306;BME280;27051;50.376;19.152;2023-06-22T01:48:44;98349.11;;;21.92;65.34
41306;BME280;27051;50.376;19.152;2023-06-22T01:51:12;98351.96;;;21.89;65.41
41306;BME280;27051;50.376;19.152;2023-06-22T01:53:42;98351.02;;;21.89;65.49
41306;BME280;27051;50.376;19.152;2023-06-22T01:56:09;98346.52;;;21.87;65.42
41306;BME280;27051;50.376;19.152;2023-06-22T01:58:40;98348.36;;;21.82;65.50
41306;BME280;27051;50.376;19.152;2023-06-22T02:01:13;98347.20;;;21.81;65.59
41306;BME280;27051;50.376;19.152;2023-06-22T02:03:46;98345.77;;;21.78;65.69
41306;BME280;27051;50.376;19.152;2023-06-22T02:06:17;98344.16;;;21.73;65.54
41306;BME280;27051;50.376;19.152;2023-06-22T02:08:49;98346.45;;;21.65;65.62
41306;BME280;27051;50.376;19.152;2023-06-22T02:11:20;98349.85;;;21.66;65.91
41306;BME280;27051;50.376;19.152;2023-06-22T02:13:48;98359.27;;;21.64;65.92
41306;BME280;27051;50.376;19.152;2023-06-22T02:16:16;98359.73;;;21.63;66.02
41306;BME280;27051;50.376;19.152;2023-06-22T02:18:48;98356.91;;;21.65;65.95
41306;BME280;27051;50.376;19.152;2023-06-22T02:21:15;98352.61;;;21.65;66.07
41306;BME280;27051;50.376;19.152;2023-06-22T02:23:44;98347.45;;;21.66;66.15
41306;BME280;27051;50.376;19.152;2023-06-22T02:26:11;98351.35;;;21.66;66.16
41306;BME280;27051;50.376;19.152;2023-06-22T02:28:38;98358.84;;;21.66;66.10
41306;BME280;27051;50.376;19.152;2023-06-22T02:31:05;98357.45;;;21.65;66.19
41306;BME280;27051;50.376;19.152;2023-06-22T02:33:31;98362.48;;;21.62;66.29
41306;BME280;27051;50.376;19.152;2023-06-22T02:35:58;98362.30;;;21.57;66.40
41306;BME280;27051;50.376;19.152;2023-06-22T02:38:25;98362.27;;;21.54;66.37
41306;BME280;27051;50.376;19.152;2023-06-22T02:40:52;98365.17;;;21.51;66.44
41306;BME280;27051;50.376;19.152;2023-06-22T02:43:19;98366.66;;;21.51;66.52
41306;BME280;27051;50.376;19.152;2023-06-22T02:45:46;98370.39;;;21.52;66.65
41306;BME280;27051;50.376;19.152;2023-06-22T02:48:15;98377.73;;;21.52;66.66
41306;BME280;27051;50.376;19.152;2023-06-22T02:50:41;98373.98;;;21.52;66.46
41306;BME280;27051;50.376;19.152;2023-06-22T02:53:08;98378.85;;;21.50;66.69
41306;BME280;27051;50.376;19.152;2023-06-22T02:55:35;98382.94;;;21.48;66.66
41306;BME280;27051;50.376;19.152;2023-06-22T02:58:02;98390.44;;;21.46;66.79
41306;BME280;27051;50.376;19.152;2023-06-22T03:00:29;98389.43;;;21.46;66.87
41306;BME280;27051;50.376;19.152;2023-06-22T03:02:56;98393.12;;;21.45;67.03
41306;BME280;27051;50.376;19.152;2023-06-22T03:05:23;98398.98;;;21.44;66.92
41306;BME280;27051;50.376;19.152;2023-06-22T03:07:50;98399.49;;;21.36;66.92
41306;BME280;27051;50.376;19.152;2023-06-22T03:10:17;98401.61;;;21.34;67.17
41306;BME280;27051;50.376;19.152;2023-06-22T03:12:44;98406.77;;;21.35;67.29
41306;BME280;27051;50.376;19.152;2023-06-22T03:15:12;98411.54;;;21.34;67.22
41306;BME280;27051;50.376;19.152;2023-06-22T03:17:40;98414.73;;;21.34;67.35
41306;BME280;27051;50.376;19.152;2023-06-22T03:20:08;98420.11;;;21.36;67.29
41306;BME280;27051;50.376;19.152;2023-06-22T03:22:35;98419.73;;;21.36;67.41
41306;BME280;27051;50.376;19.152;2023-06-22T03:25:03;98423.70;;;21.39;67.54
41306;BME280;27051;50.376;19.152;2023-06-22T03:27:30;98423.44;;;21.43;67.65
41306;BME280;27051;50.376;19.152;2023-06-22T03:29:57;98424.27;;;21.48;67.56
41306;BME280;27051;50.376;19.152;2023-06-22T03:32:24;98427.48;;;21.55;67.65
41306;BME280;27051;50.376;19.152;2023-06-22T03:34:51;98428.42;;;21.55;67.56
41306;BME280;27051;50.376;19.152;2023-06-22T03:37:17;98433.09;;;21.57;67.61
41306;BME280;27051;50.376;19.152;2023-06-22T03:39:44;98434.31;;;21.61;67.64
41306;BME280;27051;50.376;19.152;2023-06-22T03:42:11;98433.81;;;21.64;67.59
41306;BME280;27051;50.376;19.152;2023-06-22T03:44:38;98435.27;;;21.67;67.71
41306;BME280;27051;50.376;19.152;2023-06-22T03:47:07;98432.52;;;21.68;67.65
41306;BME280;27051;50.376;19.152;2023-06-22T03:49:38;98430.27;;;21.74;67.77
41306;BME280;27051;50.376;19.152;2023-06-22T03:52:05;98436.97;;;21.77;67.70
41306;BME280;27051;50.376;19.152;2023-06-22T03:54:32;98432.06;;;21.76;67.61
41306;BME280;27051;50.376;19.152;2023-06-22T03:56:59;98429.16;;;21.76;67.60
41306;BME280;27051;50.376;19.152;2023-06-22T03:59:26;98430.93;;;21.80;67.73
41306;BME280;27051;50.376;19.152;2023-06-22T04:01:53;98432.60;;;21.84;67.67
41306;BME280;27051;50.376;19.152;2023-06-22T04:04:19;98440.94;;;21.86;67.68
41306;BME280;27051;50.376;19.152;2023-06-22T04:06:49;98444.08;;;21.87;67.62
41306;BME280;27051;50.376;19.152;2023-06-22T04:09:16;98445.25;;;21.88;67.84
41306;BME280;27051;50.376;19.152;2023-06-22T04:11:43;98445.64;;;21.94;67.94
41306;BME280;27051;50.376;19.152;2023-06-22T04:14:09;98440.39;;;22.03;68.01
41306;BME280;27051;50.376;19.152;2023-06-22T04:16:36;98440.45;;;22.11;68.05
41306;BME280;27051;50.376;19.152;2023-06-22T04:19:03;98439.23;;;22.08;67.61
41306;BME280;27051;50.376;19.152;2023-06-22T04:21:30;98438.91;;;22.09;68.01
41306;BME280;27051;50.376;19.152;2023-06-22T04:23:57;98436.02;;;22.19;68.13
41306;BME280;27051;50.376;19.152;2023-06-22T04:26:24;98438.73;;;22.21;67.96
41306;BME280;27051;50.376;19.152;2023-06-22T04:28:50;98440.55;;;22.26;68.21
41306;BME280;27051;50.376;19.152;2023-06-22T04:31:17;98439.86;;;22.32;68.25
41306;BME280;27051;50.376;19.152;2023-06-22T04:33:45;98439.03;;;22.37;68.29
41306;BME280;27051;50.376;19.152;2023-06-22T04:36:11;98436.52;;;22.38;68.06
41306;BME280;27051;50.376;19.152;2023-06-22T04:38:39;98436.40;;;22.40;68.29
41306;BME280;27051;50.376;19.152;2023-06-22T04:41:06;98440.36;;;22.49;68.33
41306;BME280;27051;50.376;19.152;2023-06-22T04:43:33;98448.50;;;22.56;68.14
41306;BME280;27051;50.376;19.152;2023-06-22T04:46:00;98444.95;;;22.64;68.36
41306;BME280;27051;50.376;19.152;2023-06-22T04:48:27;98442.66;;;22.71;68.36
41306;BME280;27051;50.376;19.152;2023-06-22T04:50:54;98444.58;;;22.74;68.22
41306;BME280;27051;50.376;19.152;2023-06-22T04:53:21;98452.54;;;22.76;68.28
41306;BME280;27051;50.376;19.152;2023-06-22T04:55:47;98449.77;;;22.85;68.52
41306;BME280;27051;50.376;19.152;2023-06-22T04:58:14;98448.65;;;22.91;68.26
41306;BME280;27051;50.376;19.152;2023-06-22T05:00:41;98442.07;;;22.99;68.36
41306;BME280;27051;50.376;19.152;2023-06-22T05:03:08;98444.50;;;23.04;68.18
41306;BME280;27051;50.376;19.152;2023-06-22T05:05:34;98450.71;;;23.08;68.32
41306;BME280;27051;50.376;19.152;2023-06-22T05:08:01;98458.69;;;23.14;68.16
41306;BME280;27051;50.376;19.152;2023-06-22T05:10:28;98461.28;;;23.24;68.51
41306;BME280;27051;50.376;19.152;2023-06-22T05:12:55;98460.72;;;23.36;68.50
41306;BME280;27051;50.376;19.152;2023-06-22T05:15:22;98460.46;;;23.46;68.30
41306;BME280;27051;50.376;19.152;2023-06-22T05:17:49;98460.05;;;23.57;68.32
41306;BME280;27051;50.376;19.152;2023-06-22T05:20:15;98462.45;;;23.64;68.11
41306;BME280;27051;50.376;19.152;2023-06-22T05:22:42;98470.73;;;23.72;68.02
41306;BME280;27051;50.376;19.152;2023-06-22T05:25:15;98471.95;;;23.83;67.88
41306;BME280;27051;50.376;19.152;2023-06-22T05:27:42;98474.68;;;23.93;67.88
41306;BME280;27051;50.376;19.152;2023-06-22T05:30:09;98475.79;;;24.01;67.78
41306;BME280;27051;50.376;19.152;2023-06-22T05:32:36;98483.16;;;24.11;67.63
41306;BME280;27051;50.376;19.152;2023-06-22T05:35:03;98482.98;;;24.19;67.28
41306;BME280;27051;50.376;19.152;2023-06-22T05:37:31;98483.66;;;24.25;67.38
41306;BME280;27051;50.376;19.152;2023-06-22T05:39:57;98483.87;;;24.39;67.34
41306;BME280;27051;50.376;19.152;2023-06-22T05:42:24;98489.92;;;24.52;67.20
41306;BME280;27051;50.376;19.152;2023-06-22T05:44:52;98488.14;;;24.63;67.15
41306;BME280;27051;50.376;19.152;2023-06-22T05:47:19;98484.81;;;24.76;67.07
41306;BME280;27051;50.376;19.152;2023-06-22T05:49:46;98488.92;;;24.81;66.38
41306;BME280;27051;50.376;19.152;2023-06-22T05:52:13;98484.67;;;24.89;66.71
41306;BME280;27051;50.376;19.152;2023-06-22T05:54:40;98483.56;;;25.01;66.26
41306;BME280;27051;50.376;19.152;2023-06-22T05:57:07;98483.80;;;25.05;65.55
41306;BME280;27051;50.376;19.152;2023-06-22T05:59:33;98481.26;;;25.09;65.55
41306;BME280;27051;50.376;19.152;2023-06-22T06:02:00;98481.52;;;25.20;65.41
41306;BME280;27051;50.376;19.152;2023-06-22T06:04:27;98489.14;;;25.27;64.65
41306;BME280;27051;50.376;19.152;2023-06-22T06:06:54;98485.36;;;25.38;64.55
41306;BME280;27051;50.376;19.152;2023-06-22T06:09:21;98490.34;;;25.50;63.69
41306;BME280;27051;50.376;19.152;2023-06-22T06:11:48;98493.11;;;25.62;64.02
41306;BME280;27051;50.376;19.152;2023-06-22T06:14:14;98496.28;;;25.77;63.73
41306;BME280;27051;50.376;19.152;2023-06-22T06:16:41;98498.23;;;25.85;63.42
41306;BME280;27051;50.376;19.152;2023-06-22T06:19:08;98502.30;;;25.88;62.89
41306;BME280;27051;50.376;19.152;2023-06-22T06:21:35;98504.14;;;25.94;62.66
41306;BME280;27051;50.376;19.152;2023-06-22T06:24:02;98508.23;;;26.03;62.70
41306;BME280;27051;50.376;19.152;2023-06-22T06:26:40;98512.23;;;26.10;61.94
41306;BME280;27051;50.376;19.152;2023-06-22T06:29:07;98517.93;;;26.17;61.76
41306;BME280;27051;50.376;19.152;2023-06-22T06:31:34;98520.23;;;26.26;61.24
41306;BME280;27051;50.376;19.152;2023-06-22T06:34:01;98521.96;;;26.26;60.98
41306;BME280;27051;50.376;19.152;2023-06-22T06:36:27;98524.38;;;26.30;60.81
41306;BME280;27051;50.376;19.152;2023-06-22T06:38:54;98522.32;;;26.30;60.78
41306;BME280;27051;50.376;19.152;2023-06-22T06:41:21;98522.24;;;26.27;60.33
41306;BME280;27051;50.376;19.152;2023-06-22T06:43:51;98514.84;;;26.27;60.31
41306;BME280;27051;50.376;19.152;2023-06-22T06:46:17;98510.38;;;26.32;59.64
41306;BME280;27051;50.376;19.152;2023-06-22T06:48:44;98506.54;;;26.34;59.56
41306;BME280;27051;50.376;19.152;2023-06-22T06:51:11;98504.78;;;26.35;59.18
41306;BME280;27051;50.376;19.152;2023-06-22T06:53:38;98506.61;;;26.29;59.34
41306;BME280;27051;50.376;19.152;2023-06-22T06:56:05;98507.05;;;26.21;58.97
41306;BME280;27051;50.376;19.152;2023-06-22T06:58:45;98508.14;;;26.18;58.86
41306;BME280;27051;50.376;19.152;2023-06-22T07:01:12;98504.54;;;26.15;58.77
41306;BME280;27051;50.376;19.152;2023-06-22T07:03:39;98500.09;;;26.19;58.62
41306;BME280;27051;50.376;19.152;2023-06-22T07:06:06;98495.40;;;26.30;58.23
41306;BME280;27051;50.376;19.152;2023-06-22T07:08:33;98491.15;;;26.39;57.93
41306;BME280;27051;50.376;19.152;2023-06-22T07:10:59;98492.77;;;26.42;57.04
41306;BME280;27051;50.376;19.152;2023-06-22T07:13:26;98493.57;;;26.48;57.17
41306;BME280;27051;50.376;19.152;2023-06-22T07:15:53;98499.04;;;26.59;56.31
41306;BME280;27051;50.376;19.152;2023-06-22T07:18:19;98503.85;;;26.65;55.64
41306;BME280;27051;50.376;19.152;2023-06-22T07:20:46;98505.95;;;26.73;56.08
41306;BME280;27051;50.376;19.152;2023-06-22T07:23:13;98507.83;;;26.85;56.07
41306;BME280;27051;50.376;19.152;2023-06-22T07:25:39;98509.29;;;26.97;55.93
41306;BME280;27051;50.376;19.152;2023-06-22T07:28:06;98512.27;;;27.10;55.28
41306;BME280;27051;50.376;19.152;2023-06-22T07:30:33;98514.14;;;27.16;54.65
41306;BME280;27051;50.376;19.152;2023-06-22T07:33:01;98508.20;;;27.26;54.80
41306;BME280;27051;50.376;19.152;2023-06-22T07:35:28;98510.01;;;27.36;54.57
41306;BME280;27051;50.376;19.152;2023-06-22T07:37:58;98514.98;;;27.46;54.28
41306;BME280;27051;50.376;19.152;2023-06-22T07:40:24;98522.56;;;27.51;53.97
41306;BME280;27051;50.376;19.152;2023-06-22T07:42:51;98518.05;;;27.54;53.55
41306;BME280;27051;50.376;19.152;2023-06-22T07:45:18;98520.32;;;27.62;53.59
41306;BME280;27051;50.376;19.152;2023-06-22T07:47:45;98518.84;;;27.73;53.29
41306;BME280;27051;50.376;19.152;2023-06-22T07:50:12;98523.80;;;27.78;53.10
41306;BME280;27051;50.376;19.152;2023-06-22T07:52:38;98519.60;;;27.79;52.82
41306;BME280;27051;50.376;19.152;2023-06-22T07:55:05;98525.22;;;27.89;52.22
41306;BME280;27051;50.376;19.152;2023-06-22T07:57:32;98525.08;;;27.96;52.18
41306;BME280;27051;50.376;19.152;2023-06-22T08:00:04;98527.96;;;28.02;51.76
41306;BME280;27051;50.376;19.152;2023-06-22T08:02:33;98536.38;;;28.09;52.05
41306;BME280;27051;50.376;19.152;2023-06-22T08:04:59;98535.67;;;28.13;51.21
41306;BME280;27051;50.376;19.152;2023-06-22T08:07:26;98540.17;;;28.23;51.30
41306;BME280;27051;50.376;19.152;2023-06-22T08:09:53;98533.49;;;28.31;50.78
41306;BME280;27051;50.376;19.152;2023-06-22T08:12:20;98535.27;;;28.42;50.72
41306;BME280;27051;50.376;19.152;2023-06-22T08:14:46;98532.13;;;28.53;50.72
41306;BME280;27051;50.376;19.152;2023-06-22T08:17:13;98525.54;;;28.67;49.99
41306;BME280;27051;50.376;19.152;2023-06-22T08:19:40;98528.33;;;28.77;49.64
41306;BME280;27051;50.376;19.152;2023-06-22T08:22:06;98531.06;;;28.89;49.63
41306;BME280;27051;50.376;19.152;2023-06-22T08:24:33;98537.26;;;28.98;49.20
41306;BME280;27051;50.376;19.152;2023-06-22T08:27:01;98542.45;;;29.10;49.13
41306;BME280;27051;50.376;19.152;2023-06-22T08:29:28;98542.53;;;29.20;48.48
41306;BME280;27051;50.376;19.152;2023-06-22T08:31:54;98549.38;;;29.30;48.37
41306;BME280;27051;50.376;19.152;2023-06-22T08:34:21;98559.27;;;29.37;48.11
41306;BME280;27051;50.376;19.152;2023-06-22T08:36:48;98558.27;;;29.43;47.68
41306;BME280;27051;50.376;19.152;2023-06-22T08:39:15;98554.88;;;29.35;46.99
41306;BME280;27051;50.376;19.152;2023-06-22T08:41:42;98552.48;;;29.36;46.71
41306;BME280;27051;50.376;19.152;2023-06-22T08:44:08;98553.99;;;29.43;46.87
41306;BME280;27051;50.376;19.152;2023-06-22T08:46:35;98555.59;;;29.47;46.37
41306;BME280;27051;50.376;19.152;2023-06-22T08:49:02;98548.67;;;29.48;45.95
41306;BME280;27051;50.376;19.152;2023-06-22T08:51:28;98550.09;;;29.52;46.03
41306;BME280;27051;50.376;19.152;2023-06-22T08:54:04;98551.55;;;29.66;46.17
41306;BME280;27051;50.376;19.152;2023-06-22T08:56:31;98551.58;;;29.87;46.12
41306;BME280;27051;50.376;19.152;2023-06-22T08:58:58;98553.55;;;29.94;45.53
41306;BME280;27051;50.376;19.152;2023-06-22T09:01:25;98556.91;;;30.07;45.41
41306;BME280;27051;50.376;19.152;2023-06-22T09:03:51;98558.69;;;30.23;45.26
41306;BME280;27051;50.376;19.152;2023-06-22T09:06:18;98555.75;;;30.32;44.67
41306;BME280;27051;50.376;19.152;2023-06-22T09:08:45;98558.44;;;30.44;44.54
41306;BME280;27051;50.376;19.152;2023-06-22T09:11:12;98554.25;;;30.68;44.30
41306;BME280;27051;50.376;19.152;2023-06-22T09:13:38;98551.86;;;30.95;44.29
41306;BME280;27051;50.376;19.152;2023-06-22T09:16:05;98553.30;;;31.26;44.04
41306;BME280;27051;50.376;19.152;2023-06-22T09:18:33;98550.65;;;31.42;43.11
41306;BME280;27051;50.376;19.152;2023-06-22T09:21:00;98553.40;;;31.54;42.78
41306;BME280;27051;50.376;19.152;2023-06-22T09:23:29;98552.47;;;31.67;42.19
41306;BME280;27051;50.376;19.152;2023-06-22T09:25:56;98552.80;;;32.11;42.17
41306;BME280;27051;50.376;19.152;2023-06-22T09:28:22;98548.01;;;32.66;41.86
41306;BME280;27051;50.376;19.152;2023-06-22T09:30:49;98539.80;;;33.31;41.46
41306;BME280;27051;50.376;19.152;2023-06-22T09:33:16;98530.30;;;33.88;40.15
41306;BME280;27051;50.376;19.152;2023-06-22T09:35:42;98520.58;;;34.22;39.97
41306;BME280;27051;50.376;19.152;2023-06-22T09:38:09;98519.88;;;34.36;39.77
41306;BME280;27051;50.376;19.152;2023-06-22T09:40:36;98522.96;;;34.25;39.47
41306;BME280;27051;50.376;19.152;2023-06-22T09:43:02;98520.46;;;34.48;39.19
41306;BME280;27051;50.376;19.152;2023-06-22T09:45:29;98524.25;;;34.95;39.09
41306;BME280;27051;50.376;19.152;2023-06-22T09:47:55;98527.57;;;35.43;37.97
41306;BME280;27051;50.376;19.152;2023-06-22T09:50:22;98523.86;;;35.74;37.58
41306;BME280;27051;50.376;19.152;2023-06-22T09:52:49;98524.66;;;36.17;36.96
41306;BME280;27051;50.376;19.152;2023-06-22T09:55:16;98517.27;;;36.48;36.03
41306;BME280;27051;50.376;19.152;2023-06-22T09:57:42;98509.60;;;36.74;35.49
41306;BME280;27051;50.376;19.152;2023-06-22T10:00:10;98510.05;;;37.08;35.13
41306;BME280;27051;50.376;19.152;2023-06-22T10:02:40;98506.98;;;37.31;35.32
41306;BME280;27051;50.376;19.152;2023-06-22T10:05:08;98504.16;;;37.69;34.94
41306;BME280;27051;50.376;19.152;2023-06-22T10:07:34;98501.59;;;38.01;34.64
41306;BME280;27051;50.376;19.152;2023-06-22T10:10:01;98503.87;;;38.06;33.47
41306;BME280;27051;50.376;19.152;2023-06-22T10:12:27;98507.09;;;38.04;33.34
41306;BME280;27051;50.376;19.152;2023-06-22T10:14:54;98502.22;;;38.20;31.70
41306;BME280;27051;50.376;19.152;2023-06-22T10:17:21;98496.94;;;38.44;32.39
41306;BME280;27051;50.376;19.152;2023-06-22T10:19:47;98492.68;;;38.81;32.31
41306;BME280;27051;50.376;19.152;2023-06-22T10:22:14;98488.98;;;39.14;31.86
41306;BME280;27051;50.376;19.152;2023-06-22T10:24:40;98488.84;;;39.50;31.63
41306;BME280;27051;50.376;19.152;2023-06-22T10:27:07;98481.43;;;39.85;31.30
41306;BME280;27051;50.376;19.152;2023-06-22T10:29:33;98481.38;;;40.05;30.92
41306;BME280;27051;50.376;19.152;2023-06-22T10:32:00;98483.51;;;40.13;30.22
41306;BME280;27051;50.376;19.152;2023-06-22T10:34:27;98487.84;;;39.80;30.12
41306;BME280;27051;50.376;19.152;2023-06-22T10:36:54;98483.65;;;39.51;29.88
41306;BME280;27051;50.376;19.152;2023-06-22T10:39:20;98487.34;;;39.64;29.51
41306;BME280;27051;50.376;19.152;2023-06-22T10:41:47;98483.96;;;39.83;28.78
41306;BME280;27051;50.376;19.152;2023-06-22T10:44:13;98483.85;;;40.15;28.27
41306;BME280;27051;50.376;19.152;2023-06-22T10:46:40;98484.85;;;39.68;28.11
41306;BME280;27051;50.376;19.152;2023-06-22T10:49:07;98487.16;;;38.94;28.42
41306;BME280;27051;50.376;19.152;2023-06-22T10:51:33;98485.75;;;38.75;28.68
41306;BME280;27051;50.376;19.152;2023-06-22T10:54:00;98481.38;;;39.24;28.22
41306;BME280;27051;50.376;19.152;2023-06-22T10:56:27;98474.71;;;39.69;26.90
41306;BME280;27051;50.376;19.152;2023-06-22T10:58:54;98482.23;;;40.15;27.37
41306;BME280;27051;50.376;19.152;2023-06-22T11:01:20;98484.56;;;40.55;26.84
41306;BME280;27051;50.376;19.152;2023-06-22T11:03:47;98480.44;;;40.18;27.30
41306;BME280;27051;50.376;19.152;2023-06-22T11:06:14;98476.39;;;39.87;27.42
41306;BME280;27051;50.376;19.152;2023-06-22T11:08:44;98474.41;;;39.81;27.64
41306;BME280;27051;50.376;19.152;2023-06-22T11:11:10;98476.06;;;40.15;27.62
41306;BME280;27051;50.376;19.152;2023-06-22T11:13:37;98473.72;;;40.38;27.46
41306;BME280;27051;50.376;19.152;2023-06-22T11:16:04;98471.93;;;40.44;26.70
41306;BME280;27051;50.376;19.152;2023-06-22T11:18:31;98473.29;;;40.25;26.18
41306;BME280;27051;50.376;19.152;2023-06-22T11:20:58;98467.41;;;40.41;25.76
41306;BME280;27051;50.376;19.152;2023-06-22T11:23:25;98464.12;;;40.91;26.21
41306;BME280;27051;50.376;19.152;2023-06-22T11:25:51;98468.72;;;41.56;25.54
41306;BME280;27051;50.376;19.152;2023-06-22T11:28:18;98466.51;;;42.04;25.14
41306;BME280;27051;50.376;19.152;2023-06-22T11:30:45;98458.67;;;42.31;25.13
41306;BME280;27051;50.376;19.152;2023-06-22T11:33:12;98455.05;;;42.81;24.80
41306;BME280;27051;50.376;19.152;2023-06-22T11:35:38;98456.70;;;43.49;24.79
41306;BME280;27051;50.376;19.152;2023-06-22T11:38:05;98459.55;;;44.35;24.49
41306;BME280;27051;50.376;19.152;2023-06-22T11:40:32;98460.64;;;44.70;23.88
41306;BME280;27051;50.376;19.152;2023-06-22T11:42:58;98457.77;;;44.15;23.46
41306;BME280;27051;50.376;19.152;2023-06-22T11:45:25;98449.46;;;43.24;23.61
41306;BME280;27051;50.376;19.152;2023-06-22T11:47:51;98449.19;;;42.82;23.99
41306;BME280;27051;50.376;19.152;2023-06-22T11:50:18;98451.11;;;43.30;23.64
41306;BME280;27051;50.376;19.152;2023-06-22T11:52:45;98447.36;;;44.05;23.49
41306;BME280;27051;50.376;19.152;2023-06-22T11:55:12;98447.14;;;44.92;23.23
41306;BME280;27051;50.376;19.152;2023-06-22T11:57:53;98446.45;;;45.64;22.09
41306;BME280;27051;50.376;19.152;2023-06-22T12:00:20;98436.70;;;46.21;21.23
41306;BME280;27051;50.376;19.152;2023-06-22T12:02:47;98437.37;;;46.67;21.12
41306;BME280;27051;50.376;19.152;2023-06-22T12:05:14;98436.05;;;47.25;20.60
41306;BME280;27051;50.376;19.152;2023-06-22T12:07:40;98432.85;;;47.66;20.65
41306;BME280;27051;50.376;19.152;2023-06-22T12:10:07;98425.20;;;48.02;19.03
41306;BME280;27051;50.376;19.152;2023-06-22T12:12:34;98422.23;;;48.13;19.20
41306;BME280;27051;50.376;19.152;2023-06-22T12:15:01;98421.67;;;48.02;19.25
41306;BME280;27051;50.376;19.152;2023-06-22T12:17:27;98424.00;;;47.03;19.22
41306;BME280;27051;50.376;19.152;2023-06-22T12:19:54;98420.91;;;46.72;19.45
41306;BME280;27051;50.376;19.152;2023-06-22T12:22:21;98414.88;;;46.84;19.38
41306;BME280;27051;50.376;19.152;2023-06-22T12:24:47;98412.34;;;47.20;19.40
41306;BME280;27051;50.376;19.152;2023-06-22T12:27:15;98410.71;;;47.72;19.38
41306;BME280;27051;50.376;19.152;2023-06-22T12:29:42;98407.45;;;47.60;19.30
41306;BME280;27051;50.376;19.152;2023-06-22T12:32:08;98409.91;;;47.22;19.26
41306;BME280;27051;50.376;19.152;2023-06-22T12:34:35;98404.64;;;46.22;19.44
41306;BME280;27051;50.376;19.152;2023-06-22T12:37:02;98399.34;;;45.31;19.70
41306;BME280;27051;50.376;19.152;2023-06-22T12:39:28;98399.11;;;44.59;20.44
41306;BME280;27051;50.376;19.152;2023-06-22T12:41:55;98395.71;;;45.05;20.32
41306;BME280;27051;50.376;19.152;2023-06-22T12:44:22;98398.75;;;45.53;20.26
41306;BME280;27051;50.376;19.152;2023-06-22T12:46:49;98396.66;;;46.18;20.21
41306;BME280;27051;50.376;19.152;2023-06-22T12:49:16;98389.70;;;47.22;19.77
41306;BME280;27051;50.376;19.152;2023-06-22T12:51:43;98387.09;;;48.02;19.25
41306;BME280;27051;50.376;19.152;2023-06-22T12:54:11;98381.68;;;48.53;18.90